sensor_id;sensor_type;location;lat;lon;timestamp;temperature;humidity
1049;DHT22;513;51.444;7.196;2022-08-19T00:01:47;18.80;1.00
1049;DHT22;513;51.444;7.196;2022-08-19T00:04:17;18.70;1.00
1049;DHT22;513;51.444;7.196;2022-08-19T00:06:46;18.70;1.00
1049;DHT22;513;51.444;7.196;2022-08-19T00:09:15;18.60;1.00
1049;DHT22;513;51.444;7.196;2022-08-19T00:11:42;18.60;1.00
1049;DHT22;513;51.444;7.196;2022-08-19T00:14:12;18.60;1.00
1049;DHT22;513;51.444;7.196;2022-08-19T00:16:41;18.70;7.50
1049;DHT22;513;51.444;7.196;2022-08-19T00:19:08;18.60;12.90
1049;DHT22;513;51.444;7.196;2022-08-19T00:21:35;18.60;15.40
1049;DHT22;513;51.444;7.196;2022-08-19T00:24:05;18.60;16.50
1049;DHT22;513;51.444;7.196;2022-08-19T00:26:32;18.60;17.00
1049;DHT22;513;51.444;7.196;2022-08-19T00:28:59;18.50;16.90
1049;DHT22;513;51.444;7.196;2022-08-19T00:31:27;18.50;16.60
1049;DHT22;513;51.444;7.196;2022-08-19T00:33:54;18.50;16.00
1049;DHT22;513;51.444;7.196;2022-08-19T00:36:21;18.50;14.60
1049;DHT22;513;51.444;7.196;2022-08-19T00:38:47;18.50;15.10
1049;DHT22;513;51.444;7.196;2022-08-19T00:41:18;18.40;15.10
1049;DHT22;513;51.444;7.196;2022-08-19T00:43:57;18.30;16.60
1049;DHT22;513;51.444;7.196;2022-08-19T00:46:24;18.30;20.30
1049;DHT22;513;51.444;7.196;2022-08-19T00:48:53;18.30;24.50
1049;DHT22;513;51.444;7.196;2022-08-19T00:51:20;18.30;28.70
1049;DHT22;513;51.444;7.196;2022-08-19T00:53:47;18.20;31.90
1049;DHT22;513;51.444;7.196;2022-08-19T00:56:14;18.20;34.50
1049;DHT22;513;51.444;7.196;2022-08-19T00:58:42;18.20;37.70
1049;DHT22;513;51.444;7.196;2022-08-19T01:01:09;18.20;41.20
1049;DHT22;513;51.444;7.196;2022-08-19T01:03:36;18.20;44.30
1049;DHT22;513;51.444;7.196;2022-08-19T01:06:05;18.10;46.70
1049;DHT22;513;51.444;7.196;2022-08-19T01:08:32;18.10;49.50
1049;DHT22;513;51.444;7.196;2022-08-19T01:11:00;18.10;49.60
1049;DHT22;513;51.444;7.196;2022-08-19T01:13:30;18.10;50.10
1049;DHT22;513;51.444;7.196;2022-08-19T01:16:01;18.00;52.40
1049;DHT22;513;51.444;7.196;2022-08-19T01:18:29;18.00;54.60
1049;DHT22;513;51.444;7.196;2022-08-19T01:21:02;18.00;57.30
1049;DHT22;513;51.444;7.196;2022-08-19T01:23:32;18.00;61.30
1049;DHT22;513;51.444;7.196;2022-08-19T01:26:10;17.90;67.10
1049;DHT22;513;51.444;7.196;2022-08-19T01:28:37;17.90;73.80
1049;DHT22;513;51.444;7.196;2022-08-19T01:31:05;17.80;81.00
1049;DHT22;513;51.444;7.196;2022-08-19T01:33:32;17.80;90.80
1049;DHT22;513;51.444;7.196;2022-08-19T01:36:07;17.80;96.00
1049;DHT22;513;51.444;7.196;2022-08-19T01:38:39;17.80;99.90
1049;DHT22;513;51.444;7.196;2022-08-19T01:41:06;17.80;99.90
1049;DHT22;513;51.444;7.196;2022-08-19T01:43:33;17.70;99.90
1049;DHT22;513;51.444;7.196;2022-08-19T01:46:00;17.70;99.90
1049;DHT22;513;51.444;7.196;2022-08-19T01:48:33;17.80;99.90
1049;DHT22;513;51.444;7.196;2022-08-19T01:50:59;17.80;99.90
1049;DHT22;513;51.444;7.196;2022-08-19T01:53:26;17.80;99.90
1049;DHT22;513;51.444;7.196;2022-08-19T01:55:54;17.70;99.90
1049;DHT22;513;51.444;7.196;2022-08-19T01:58:25;17.70;99.90
1049;DHT22;513;51.444;7.196;2022-08-19T02:00:53;17.70;99.90
1049;DHT22;513;51.444;7.196;2022-08-19T02:03:20;17.70;99.90
1049;DHT22;513;51.444;7.196;2022-08-19T02:05:46;17.70;99.90
1049;DHT22;513;51.444;7.196;2022-08-19T02:08:13;17.70;99.90
1049;DHT22;513;51.444;7.196;2022-08-19T02:10:43;17.70;99.90
1049;DHT22;513;51.444;7.196;2022-08-19T02:13:12;17.70;99.90
1049;DHT22;513;51.444;7.196;2022-08-19T02:15:39;17.70;99.90
1049;DHT22;513;51.444;7.196;2022-08-19T02:18:07;17.70;99.90
1049;DHT22;513;51.444;7.196;2022-08-19T02:20:34;17.60;99.90
1049;DHT22;513;51.444;7.196;2022-08-19T02:23:01;17.60;99.90
1049;DHT22;513;51.444;7.196;2022-08-19T02:25:28;17.60;99.90
1049;DHT22;513;51.444;7.196;2022-08-19T02:27:55;17.60;99.90
1049;DHT22;513;51.444;7.196;2022-08-19T02:30:23;17.50;99.90
1049;DHT22;513;51.444;7.196;2022-08-19T02:32:51;17.50;99.90
1049;DHT22;513;51.444;7.196;2022-08-19T02:35:18;17.50;99.90
1049;DHT22;513;51.444;7.196;2022-08-19T02:37:45;17.50;99.90
1049;DHT22;513;51.444;7.196;2022-08-19T02:40:31;17.50;99.90
1049;DHT22;513;51.444;7.196;2022-08-19T02:42:59;17.50;99.90
1049;DHT22;513;51.444;7.196;2022-08-19T02:45:31;17.50;99.90
1049;DHT22;513;51.444;7.196;2022-08-19T02:47:58;17.50;99.90
1049;DHT22;513;51.444;7.196;2022-08-19T02:50:25;17.50;99.90
1049;DHT22;513;51.444;7.196;2022-08-19T02:52:52;17.50;99.90
1049;DHT22;513;51.444;7.196;2022-08-19T02:55:18;17.50;99.90
1049;DHT22;513;51.444;7.196;2022-08-19T02:57:46;17.40;99.90
1049;DHT22;513;51.444;7.196;2022-08-19T03:00:13;17.40;99.90
1049;DHT22;513;51.444;7.196;2022-08-19T03:02:41;17.40;99.90
1049;DHT22;513;51.444;7.196;2022-08-19T03:05:09;17.50;99.90
1049;DHT22;513;51.444;7.196;2022-08-19T03:07:36;17.50;99.90
1049;DHT22;513;51.444;7.196;2022-08-19T03:10:04;17.50;99.90
1049;DHT22;513;51.444;7.196;2022-08-19T03:12:31;17.50;99.90
1049;DHT22;513;51.444;7.196;2022-08-19T03:14:57;17.60;99.90
1049;DHT22;513;51.444;7.196;2022-08-19T03:17:26;17.50;99.90
1049;DHT22;513;51.444;7.196;2022-08-19T03:19:54;17.50;99.90
1049;DHT22;513;51.444;7.196;2022-08-19T03:22:20;17.50;99.90
1049;DHT22;513;51.444;7.196;2022-08-19T03:24:47;17.50;99.90
1049;DHT22;513;51.444;7.196;2022-08-19T03:27:14;17.50;99.90
1049;DHT22;513;51.444;7.196;2022-08-19T03:29:40;17.50;99.90
1049;DHT22;513;51.444;7.196;2022-08-19T03:32:07;17.50;99.90
1049;DHT22;513;51.444;7.196;2022-08-19T03:34:36;17.50;99.90
1049;DHT22;513;51.444;7.196;2022-08-19T03:37:06;17.50;99.90
1049;DHT22;513;51.444;7.196;2022-08-19T03:39:35;17.50;99.90
1049;DHT22;513;51.444;7.196;2022-08-19T03:42:03;17.40;99.90
1049;DHT22;513;51.444;7.196;2022-08-19T03:44:31;17.40;99.90
1049;DHT22;513;51.444;7.196;2022-08-19T03:46:59;17.40;99.90
1049;DHT22;513;51.444;7.196;2022-08-19T03:49:28;17.40;99.90
1049;DHT22;513;51.444;7.196;2022-08-19T03:51:55;17.40;99.90
1049;DHT22;513;51.444;7.196;2022-08-19T03:54:24;17.40;99.90
1049;DHT22;513;51.444;7.196;2022-08-19T03:56:53;17.40;99.90
1049;DHT22;513;51.444;7.196;2022-08-19T03:59:22;17.30;99.90
1049;DHT22;513;51.444;7.196;2022-08-19T04:01:51;17.30;99.90
1049;DHT22;513;51.444;7.196;2022-08-19T04:04:18;17.20;99.90
1049;DHT22;513;51.444;7.196;2022-08-19T04:06:45;17.30;99.90
1049;DHT22;513;51.444;7.196;2022-08-19T04:09:12;17.20;99.90
1049;DHT22;513;51.444;7.196;2022-08-19T04:11:43;17.20;99.90
1049;DHT22;513;51.444;7.196;2022-08-19T04:14:12;17.10;99.90
1049;DHT22;513;51.444;7.196;2022-08-19T04:16:39;17.20;99.90
1049;DHT22;513;51.444;7.196;2022-08-19T04:19:07;17.10;99.90
1049;DHT22;513;51.444;7.196;2022-08-19T04:21:33;17.20;99.90
1049;DHT22;513;51.444;7.196;2022-08-19T04:24:01;17.20;99.90
1049;DHT22;513;51.444;7.196;2022-08-19T04:26:31;17.20;99.90
1049;DHT22;513;51.444;7.196;2022-08-19T04:29:00;17.20;99.90
1049;DHT22;513;51.444;7.196;2022-08-19T04:31:30;17.20;99.90
1049;DHT22;513;51.444;7.196;2022-08-19T04:33:59;17.20;99.90
1049;DHT22;513;51.444;7.196;2022-08-19T04:36:29;17.20;99.90
1049;DHT22;513;51.444;7.196;2022-08-19T04:38:58;17.20;99.90
1049;DHT22;513;51.444;7.196;2022-08-19T04:41:25;17.30;99.90
1049;DHT22;513;51.444;7.196;2022-08-19T04:44:12;17.30;99.90
1049;DHT22;513;51.444;7.196;2022-08-19T04:46:39;17.30;99.90
1049;DHT22;513;51.444;7.196;2022-08-19T04:49:07;17.40;99.90
1049;DHT22;513;51.444;7.196;2022-08-19T04:51:34;17.40;99.90
1049;DHT22;513;51.444;7.196;2022-08-19T04:54:03;17.40;99.90
1049;DHT22;513;51.444;7.196;2022-08-19T04:56:30;17.50;99.90
1049;DHT22;513;51.444;7.196;2022-08-19T04:58:57;17.50;99.90
1049;DHT22;513;51.444;7.196;2022-08-19T05:01:27;17.50;99.90
1049;DHT22;513;51.444;7.196;2022-08-19T05:03:56;17.60;99.90
1049;DHT22;513;51.444;7.196;2022-08-19T05:06:23;17.60;99.90
1049;DHT22;513;51.444;7.196;2022-08-19T05:08:51;17.60;99.90
1049;DHT22;513;51.444;7.196;2022-08-19T05:11:21;17.70;99.90
1049;DHT22;513;51.444;7.196;2022-08-19T05:13:48;17.70;99.90
1049;DHT22;513;51.444;7.196;2022-08-19T05:16:16;17.70;99.90
1049;DHT22;513;51.444;7.196;2022-08-19T05:18:45;17.70;99.90
1049;DHT22;513;51.444;7.196;2022-08-19T05:21:29;17.80;99.90
1049;DHT22;513;51.444;7.196;2022-08-19T05:24:15;17.80;99.90
1049;DHT22;513;51.444;7.196;2022-08-19T05:26:45;17.80;99.90
1049;DHT22;513;51.444;7.196;2022-08-19T05:29:13;17.80;99.90
1049;DHT22;513;51.444;7.196;2022-08-19T05:31:40;17.90;99.90
1049;DHT22;513;51.444;7.196;2022-08-19T05:34:09;18.10;99.90
1049;DHT22;513;51.444;7.196;2022-08-19T05:36:38;18.20;99.90
1049;DHT22;513;51.444;7.196;2022-08-19T05:39:05;18.40;99.90
1049;DHT22;513;51.444;7.196;2022-08-19T05:41:32;18.50;99.90
1049;DHT22;513;51.444;7.196;2022-08-19T05:44:02;18.50;99.90
1049;DHT22;513;51.444;7.196;2022-08-19T05:46:31;18.70;99.90
1049;DHT22;513;51.444;7.196;2022-08-19T05:48:58;18.80;94.10
1049;DHT22;513;51.444;7.196;2022-08-19T05:51:26;19.00;75.90
1049;DHT22;513;51.444;7.196;2022-08-19T05:53:52;19.20;53.90
1049;DHT22;513;51.444;7.196;2022-08-19T05:56:19;19.20;36.70
1049;DHT22;513;51.444;7.196;2022-08-19T05:58:46;19.30;24.60
1049;DHT22;513;51.444;7.196;2022-08-19T06:01:15;19.30;22.70
1049;DHT22;513;51.444;7.196;2022-08-19T06:03:42;19.30;22.30
1049;DHT22;513;51.444;7.196;2022-08-19T06:06:11;19.30;20.90
1049;DHT22;513;51.444;7.196;2022-08-19T06:08:40;19.30;19.90
1049;DHT22;513;51.444;7.196;2022-08-19T06:11:17;19.50;15.60
1049;DHT22;513;51.444;7.196;2022-08-19T06:13:45;19.50;8.70
1049;DHT22;513;51.444;7.196;2022-08-19T06:16:12;19.60;3.70
1049;DHT22;513;51.444;7.196;2022-08-19T06:18:48;19.60;1.00
1049;DHT22;513;51.444;7.196;2022-08-19T06:21:17;19.70;1.00
1049;DHT22;513;51.444;7.196;2022-08-19T06:23:46;19.70;1.00
1049;DHT22;513;51.444;7.196;2022-08-19T06:26:14;19.80;1.00
1049;DHT22;513;51.444;7.196;2022-08-19T06:28:42;19.90;1.00
1049;DHT22;513;51.444;7.196;2022-08-19T06:31:12;19.90;1.00
1049;DHT22;513;51.444;7.196;2022-08-19T06:33:40;20.00;1.00
1049;DHT22;513;51.444;7.196;2022-08-19T06:36:08;20.00;1.00
1049;DHT22;513;51.444;7.196;2022-08-19T06:38:41;20.10;1.00
1049;DHT22;513;51.444;7.196;2022-08-19T06:41:09;20.10;1.00
1049;DHT22;513;51.444;7.196;2022-08-19T06:43:36;20.30;1.00
1049;DHT22;513;51.444;7.196;2022-08-19T06:46:03;20.30;1.00
1049;DHT22;513;51.444;7.196;2022-08-19T06:48:33;20.40;1.00
1049;DHT22;513;51.444;7.196;2022-08-19T06:51:00;20.50;1.00
1049;DHT22;513;51.444;7.196;2022-08-19T06:53:29;20.60;1.00
1049;DHT22;513;51.444;7.196;2022-08-19T06:55:55;20.50;1.00
1049;DHT22;513;51.444;7.196;2022-08-19T06:58:26;20.40;1.00
1049;DHT22;513;51.444;7.196;2022-08-19T07:00:53;20.40;1.00
1049;DHT22;513;51.444;7.196;2022-08-19T07:03:20;20.40;1.00
1049;DHT22;513;51.444;7.196;2022-08-19T07:05:47;20.50;1.00
1049;DHT22;513;51.444;7.196;2022-08-19T07:08:14;20.30;1.00
1049;DHT22;513;51.444;7.196;2022-08-19T07:10:43;20.40;1.00
1049;DHT22;513;51.444;7.196;2022-08-19T07:13:09;20.50;1.00
1049;DHT22;513;51.444;7.196;2022-08-19T07:15:38;20.60;1.00
1049;DHT22;513;51.444;7.196;2022-08-19T07:18:04;20.60;1.00
1049;DHT22;513;51.444;7.196;2022-08-19T07:20:31;20.70;1.00
1049;DHT22;513;51.444;7.196;2022-08-19T07:22:58;20.80;1.00
1049;DHT22;513;51.444;7.196;2022-08-19T07:25:24;20.90;1.00
1049;DHT22;513;51.444;7.196;2022-08-19T07:27:53;21.00;1.00
1049;DHT22;513;51.444;7.196;2022-08-19T07:30:20;21.10;1.00
1049;DHT22;513;51.444;7.196;2022-08-19T07:32:49;21.30;1.00
1049;DHT22;513;51.444;7.196;2022-08-19T07:35:16;21.30;1.00
1049;DHT22;513;51.444;7.196;2022-08-19T07:37:44;21.40;1.00
1049;DHT22;513;51.444;7.196;2022-08-19T07:40:12;21.40;1.00
1049;DHT22;513;51.444;7.196;2022-08-19T07:42:38;21.50;1.00
1049;DHT22;513;51.444;7.196;2022-08-19T07:45:06;21.60;1.00
1049;DHT22;513;51.444;7.196;2022-08-19T07:47:33;21.70;1.00
1049;DHT22;513;51.444;7.196;2022-08-19T07:50:03;21.60;1.00
1049;DHT22;513;51.444;7.196;2022-08-19T07:52:30;21.80;1.00
1049;DHT22;513;51.444;7.196;2022-08-19T07:54:57;21.70;1.00
1049;DHT22;513;51.444;7.196;2022-08-19T07:57:25;21.80;1.00
1049;DHT22;513;51.444;7.196;2022-08-19T07:59:51;21.60;1.00
1049;DHT22;513;51.444;7.196;2022-08-19T08:02:18;21.60;1.00
1049;DHT22;513;51.444;7.196;2022-08-19T08:04:45;21.80;1.00
1049;DHT22;513;51.444;7.196;2022-08-19T08:07:30;21.90;1.00
1049;DHT22;513;51.444;7.196;2022-08-19T08:10:15;21.80;1.00
1049;DHT22;513;51.444;7.196;2022-08-19T08:12:41;21.90;1.00
1049;DHT22;513;51.444;7.196;2022-08-19T08:15:13;22.00;1.00
1049;DHT22;513;51.444;7.196;2022-08-19T08:17:42;22.10;1.00
1049;DHT22;513;51.444;7.196;2022-08-19T08:20:09;22.30;1.00
1049;DHT22;513;51.444;7.196;2022-08-19T08:22:43;22.50;1.00
1049;DHT22;513;51.444;7.196;2022-08-19T08:25:27;22.30;1.00
1049;DHT22;513;51.444;7.196;2022-08-19T08:27:55;22.40;99.90
1049;DHT22;513;51.444;7.196;2022-08-19T08:30:28;22.50;99.90
1049;DHT22;513;51.444;7.196;2022-08-19T08:32:54;22.50;99.90
1049;DHT22;513;51.444;7.196;2022-08-19T08:35:23;22.70;1.00
1049;DHT22;513;51.444;7.196;2022-08-19T08:37:53;22.70;99.90
1049;DHT22;513;51.444;7.196;2022-08-19T08:40:23;22.80;99.90
1049;DHT22;513;51.444;7.196;2022-08-19T08:42:55;22.80;99.90
1049;DHT22;513;51.444;7.196;2022-08-19T08:45:26;22.90;99.90
1049;DHT22;513;51.444;7.196;2022-08-19T08:47:57;22.90;99.90
1049;DHT22;513;51.444;7.196;2022-08-19T08:50:32;23.10;99.90
1049;DHT22;513;51.444;7.196;2022-08-19T08:53:03;23.30;99.90
1049;DHT22;513;51.444;7.196;2022-08-19T08:55:32;23.40;6.60
1049;DHT22;513;51.444;7.196;2022-08-19T08:58:03;23.50;1.00
1049;DHT22;513;51.444;7.196;2022-08-19T09:00:34;23.50;99.90
1049;DHT22;513;51.444;7.196;2022-08-19T09:03:04;23.50;68.50
1049;DHT22;513;51.444;7.196;2022-08-19T09:05:37;23.30;1.00
1049;DHT22;513;51.444;7.196;2022-08-19T09:08:14;23.40;17.90
1049;DHT22;513;51.444;7.196;2022-08-19T09:10:46;23.60;99.90
1049;DHT22;513;51.444;7.196;2022-08-19T09:13:21;23.70;47.80
1049;DHT22;513;51.444;7.196;2022-08-19T09:15:56;24.00;99.90
1049;DHT22;513;51.444;7.196;2022-08-19T09:18:25;24.10;99.90
1049;DHT22;513;51.444;7.196;2022-08-19T09:20:51;24.20;99.90
1049;DHT22;513;51.444;7.196;2022-08-19T09:23:19;24.40;70.60
1049;DHT22;513;51.444;7.196;2022-08-19T09:25:46;24.40;3.40
1049;DHT22;513;51.444;7.196;2022-08-19T09:28:13;24.40;1.00
1049;DHT22;513;51.444;7.196;2022-08-19T09:30:41;24.60;1.00
1049;DHT22;513;51.444;7.196;2022-08-19T09:33:08;24.50;1.00
1049;DHT22;513;51.444;7.196;2022-08-19T09:35:34;24.80;1.00
1049;DHT22;513;51.444;7.196;2022-08-19T09:38:02;24.80;1.00
1049;DHT22;513;51.444;7.196;2022-08-19T09:40:30;24.50;99.90
1049;DHT22;513;51.444;7.196;2022-08-19T09:42:57;24.50;99.90
1049;DHT22;513;51.444;7.196;2022-08-19T09:45:28;24.40;99.90
1049;DHT22;513;51.444;7.196;2022-08-19T09:47:56;24.50;99.90
1049;DHT22;513;51.444;7.196;2022-08-19T09:50:23;24.50;99.90
1049;DHT22;513;51.444;7.196;2022-08-19T09:52:50;24.60;99.90
1049;DHT22;513;51.444;7.196;2022-08-19T09:55:18;24.50;99.90
1049;DHT22;513;51.444;7.196;2022-08-19T09:57:46;24.60;99.90
1049;DHT22;513;51.444;7.196;2022-08-19T10:00:14;24.80;99.90
1049;DHT22;513;51.444;7.196;2022-08-19T10:02:42;24.90;99.90
1049;DHT22;513;51.444;7.196;2022-08-19T10:05:10;24.80;99.90
1049;DHT22;513;51.444;7.196;2022-08-19T10:07:54;24.90;99.90
1049;DHT22;513;51.444;7.196;2022-08-19T10:10:21;25.00;99.90
1049;DHT22;513;51.444;7.196;2022-08-19T10:12:49;25.00;99.90
1049;DHT22;513;51.444;7.196;2022-08-19T10:15:15;25.00;99.90
1049;DHT22;513;51.444;7.196;2022-08-19T10:17:46;25.10;99.90
1049;DHT22;513;51.444;7.196;2022-08-19T10:20:13;25.30;99.90
1049;DHT22;513;51.444;7.196;2022-08-19T10:22:40;25.20;99.90
1049;DHT22;513;51.444;7.196;2022-08-19T10:25:09;25.00;99.90
1049;DHT22;513;51.444;7.196;2022-08-19T10:27:35;24.80;99.90
1049;DHT22;513;51.444;7.196;2022-08-19T10:30:05;24.80;99.90
1049;DHT22;513;51.444;7.196;2022-08-19T10:32:32;24.80;99.90
1049;DHT22;513;51.444;7.196;2022-08-19T10:34:59;24.90;99.90
1049;DHT22;513;51.444;7.196;2022-08-19T10:37:26;24.50;99.90
1049;DHT22;513;51.444;7.196;2022-08-19T10:39:53;24.50;99.90
1049;DHT22;513;51.444;7.196;2022-08-19T10:42:19;24.50;99.90
1049;DHT22;513;51.444;7.196;2022-08-19T10:44:46;24.50;99.90
1049;DHT22;513;51.444;7.196;2022-08-19T10:47:14;24.60;99.90
1049;DHT22;513;51.444;7.196;2022-08-19T10:49:41;24.70;99.90
1049;DHT22;513;51.444;7.196;2022-08-19T10:52:25;24.50;99.90
1049;DHT22;513;51.444;7.196;2022-08-19T10:55:02;24.50;99.90
1049;DHT22;513;51.444;7.196;2022-08-19T10:57:47;24.50;99.90
1049;DHT22;513;51.444;7.196;2022-08-19T11:00:14;24.60;99.90
1049;DHT22;513;51.444;7.196;2022-08-19T11:02:43;24.70;99.90
1049;DHT22;513;51.444;7.196;2022-08-19T11:05:09;25.00;99.90
1049;DHT22;513;51.444;7.196;2022-08-19T11:07:37;25.20;99.90
1049;DHT22;513;51.444;7.196;2022-08-19T11:10:05;25.20;99.90
1049;DHT22;513;51.444;7.196;2022-08-19T11:12:31;25.20;99.90
1049;DHT22;513;51.444;7.196;2022-08-19T11:14:59;25.60;99.90
1049;DHT22;513;51.444;7.196;2022-08-19T11:17:25;25.90;99.90
1049;DHT22;513;51.444;7.196;2022-08-19T11:19:53;26.20;99.90
1049;DHT22;513;51.444;7.196;2022-08-19T11:22:20;26.50;99.90
1049;DHT22;513;51.444;7.196;2022-08-19T11:24:47;26.70;99.90
1049;DHT22;513;51.444;7.196;2022-08-19T11:27:13;26.80;99.90
1049;DHT22;513;51.444;7.196;2022-08-19T11:29:40;27.00;99.90
1049;DHT22;513;51.444;7.196;2022-08-19T11:32:09;27.20;99.90
1049;DHT22;513;51.444;7.196;2022-08-19T11:34:36;27.30;99.90
1049;DHT22;513;51.444;7.196;2022-08-19T11:37:05;27.00;99.90
1049;DHT22;513;51.444;7.196;2022-08-19T11:39:33;26.80;99.90
1049;DHT22;513;51.444;7.196;2022-08-19T11:42:01;26.40;99.90
1049;DHT22;513;51.444;7.196;2022-08-19T11:44:28;26.00;99.90
1049;DHT22;513;51.444;7.196;2022-08-19T11:46:56;25.80;99.90
1049;DHT22;513;51.444;7.196;2022-08-19T11:49:23;25.90;99.90
1049;DHT22;513;51.444;7.196;2022-08-19T11:51:49;25.50;99.90
1049;DHT22;513;51.444;7.196;2022-08-19T11:54:17;25.50;99.90
1049;DHT22;513;51.444;7.196;2022-08-19T11:56:44;25.70;99.90
1049;DHT22;513;51.444;7.196;2022-08-19T11:59:13;25.80;99.90
1049;DHT22;513;51.444;7.196;2022-08-19T12:01:40;26.00;99.90
1049;DHT22;513;51.444;7.196;2022-08-19T12:04:07;26.20;99.90
1049;DHT22;513;51.444;7.196;2022-08-19T12:06:38;26.20;99.90
1049;DHT22;513;51.444;7.196;2022-08-19T12:09:06;26.50;99.90
1049;DHT22;513;51.444;7.196;2022-08-19T12:11:35;26.70;99.90
1049;DHT22;513;51.444;7.196;2022-08-19T12:14:03;26.80;99.90
1049;DHT22;513;51.444;7.196;2022-08-19T12:16:31;26.90;99.90
1049;DHT22;513;51.444;7.196;2022-08-19T12:18:58;26.60;99.90
1049;DHT22;513;51.444;7.196;2022-08-19T12:21:29;26.70;99.90
1049;DHT22;513;51.444;7.196;2022-08-19T12:23:58;26.70;99.90
1049;DHT22;513;51.444;7.196;2022-08-19T12:26:26;26.70;99.90
1049;DHT22;513;51.444;7.196;2022-08-19T12:28:55;26.70;99.90
1049;DHT22;513;51.444;7.196;2022-08-19T12:31:24;26.70;99.90
1049;DHT22;513;51.444;7.196;2022-08-19T12:33:51;26.50;99.90
1049;DHT22;513;51.444;7.196;2022-08-19T12:36:18;26.40;99.90
1049;DHT22;513;51.444;7.196;2022-08-19T12:38:45;26.40;99.90
1049;DHT22;513;51.444;7.196;2022-08-19T12:41:14;26.70;99.90
1049;DHT22;513;51.444;7.196;2022-08-19T12:43:42;27.00;99.90
1049;DHT22;513;51.444;7.196;2022-08-19T12:46:11;27.20;99.90
1049;DHT22;513;51.444;7.196;2022-08-19T12:48:38;27.10;99.90
1049;DHT22;513;51.444;7.196;2022-08-19T12:51:08;27.10;99.90
1049;DHT22;513;51.444;7.196;2022-08-19T12:53:36;27.30;99.90
1049;DHT22;513;51.444;7.196;2022-08-19T12:56:03;27.20;99.90
1049;DHT22;513;51.444;7.196;2022-08-19T12:58:30;26.80;99.90
1049;DHT22;513;51.444;7.196;2022-08-19T13:00:57;26.60;99.90
1049;DHT22;513;51.444;7.196;2022-08-19T13:03:25;26.60;99.90
1049;DHT22;513;51.444;7.196;2022-08-19T13:05:55;25.90;99.90
1049;DHT22;513;51.444;7.196;2022-08-19T13:08:21;26.00;99.90
1049;DHT22;513;51.444;7.196;2022-08-19T13:10:48;26.20;99.90
1049;DHT22;513;51.444;7.196;2022-08-19T13:13:16;26.40;99.90
1049;DHT22;513;51.444;7.196;2022-08-19T13:15:43;26.60;99.90
1049;DHT22;513;51.444;7.196;2022-08-19T13:18:11;26.80;99.90
1049;DHT22;513;51.444;7.196;2022-08-19T13:20:40;26.80;99.90
1049;DHT22;513;51.444;7.196;2022-08-19T13:23:07;26.90;99.90
1049;DHT22;513;51.444;7.196;2022-08-19T13:25:34;26.70;99.90
1049;DHT22;513;51.444;7.196;2022-08-19T13:28:02;26.90;99.90
1049;DHT22;513;51.444;7.196;2022-08-19T13:30:29;26.80;99.90
1049;DHT22;513;51.444;7.196;2022-08-19T13:33:13;26.70;99.90
1049;DHT22;513;51.444;7.196;2022-08-19T13:35:46;26.50;99.90
1049;DHT22;513;51.444;7.196;2022-08-19T13:38:15;26.60;99.90
1049;DHT22;513;51.444;7.196;2022-08-19T13:40:42;26.80;99.90
1049;DHT22;513;51.444;7.196;2022-08-19T13:43:09;27.00;99.90
1049;DHT22;513;51.444;7.196;2022-08-19T13:45:36;27.20;99.90
1049;DHT22;513;51.444;7.196;2022-08-19T13:48:05;27.30;99.90
1049;DHT22;513;51.444;7.196;2022-08-19T13:50:35;27.40;99.90
1049;DHT22;513;51.444;7.196;2022-08-19T13:53:05;27.60;99.90
1049;DHT22;513;51.444;7.196;2022-08-19T13:55:32;27.70;99.90
1049;DHT22;513;51.444;7.196;2022-08-19T13:58:00;27.90;99.90
1049;DHT22;513;51.444;7.196;2022-08-19T14:00:30;27.80;99.90
1049;DHT22;513;51.444;7.196;2022-08-19T14:02:58;27.60;99.90
1049;DHT22;513;51.444;7.196;2022-08-19T14:05:26;27.80;99.90
1049;DHT22;513;51.444;7.196;2022-08-19T14:07:54;27.90;99.90
1049;DHT22;513;51.444;7.196;2022-08-19T14:10:22;27.90;99.90
1049;DHT22;513;51.444;7.196;2022-08-19T14:12:51;27.60;99.90
1049;DHT22;513;51.444;7.196;2022-08-19T14:15:18;27.20;99.90
1049;DHT22;513;51.444;7.196;2022-08-19T14:17:45;27.20;99.90
1049;DHT22;513;51.444;7.196;2022-08-19T14:20:14;27.20;99.90
1049;DHT22;513;51.444;7.196;2022-08-19T14:22:42;27.30;99.90
1049;DHT22;513;51.444;7.196;2022-08-19T14:25:12;27.30;99.90
1049;DHT22;513;51.444;7.196;2022-08-19T14:27:41;27.30;99.90
1049;DHT22;513;51.444;7.196;2022-08-19T14:30:10;27.30;99.90
1049;DHT22;513;51.444;7.196;2022-08-19T14:32:37;27.30;99.90
1049;DHT22;513;51.444;7.196;2022-08-19T14:35:05;27.10;99.90
1049;DHT22;513;51.444;7.196;2022-08-19T14:37:33;26.70;99.90
1049;DHT22;513;51.444;7.196;2022-08-19T14:40:00;26.90;99.90
1049;DHT22;513;51.444;7.196;2022-08-19T14:42:27;27.20;99.90
1049;DHT22;513;51.444;7.196;2022-08-19T14:44:58;27.00;99.90
1049;DHT22;513;51.444;7.196;2022-08-19T14:47:25;27.10;99.90
1049;DHT22;513;51.444;7.196;2022-08-19T14:49:52;27.30;99.90
1049;DHT22;513;51.444;7.196;2022-08-19T14:52:19;27.30;99.90
1049;DHT22;513;51.444;7.196;2022-08-19T14:54:46;27.50;99.90
1049;DHT22;513;51.444;7.196;2022-08-19T14:57:14;27.60;99.90
1049;DHT22;513;51.444;7.196;2022-08-19T14:59:41;27.30;99.90
1049;DHT22;513;51.444;7.196;2022-08-19T15:02:09;27.50;99.90
1049;DHT22;513;51.444;7.196;2022-08-19T15:04:36;27.50;99.90
1049;DHT22;513;51.444;7.196;2022-08-19T15:07:03;27.60;99.90
1049;DHT22;513;51.444;7.196;2022-08-19T15:09:30;27.50;99.90
1049;DHT22;513;51.444;7.196;2022-08-19T15:11:57;27.70;99.90
1049;DHT22;513;51.444;7.196;2022-08-19T15:14:24;27.80;99.90
1049;DHT22;513;51.444;7.196;2022-08-19T15:16:51;27.30;99.90
1049;DHT22;513;51.444;7.196;2022-08-19T15:19:20;27.40;99.90
1049;DHT22;513;51.444;7.196;2022-08-19T15:21:47;27.50;99.90
1049;DHT22;513;51.444;7.196;2022-08-19T15:24:13;27.30;99.90
1049;DHT22;513;51.444;7.196;2022-08-19T15:26:40;26.90;99.90
1049;DHT22;513;51.444;7.196;2022-08-19T15:29:08;26.70;99.90
1049;DHT22;513;51.444;7.196;2022-08-19T15:31:35;26.90;99.90
1049;DHT22;513;51.444;7.196;2022-08-19T15:34:02;26.90;99.90
1049;DHT22;513;51.444;7.196;2022-08-19T15:36:32;26.70;99.90
1049;DHT22;513;51.444;7.196;2022-08-19T15:39:00;26.60;99.90
1049;DHT22;513;51.444;7.196;2022-08-19T15:41:29;26.50;99.90
1049;DHT22;513;51.444;7.196;2022-08-19T15:43:58;26.30;99.90
1049;DHT22;513;51.444;7.196;2022-08-19T15:46:28;26.10;99.90
1049;DHT22;513;51.444;7.196;2022-08-19T15:48:57;26.00;99.90
1049;DHT22;513;51.444;7.196;2022-08-19T15:51:24;25.80;99.90
1049;DHT22;513;51.444;7.196;2022-08-19T15:53:53;25.70;99.90
1049;DHT22;513;51.444;7.196;2022-08-19T15:56:20;25.60;99.90
1049;DHT22;513;51.444;7.196;2022-08-19T15:58:47;25.70;99.90
1049;DHT22;513;51.444;7.196;2022-08-19T16:01:31;25.80;99.90
1049;DHT22;513;51.444;7.196;2022-08-19T16:04:15;25.90;99.90
1049;DHT22;513;51.444;7.196;2022-08-19T16:07:00;25.90;99.90
1049;DHT22;513;51.444;7.196;2022-08-19T16:09:30;25.90;99.90
1049;DHT22;513;51.444;7.196;2022-08-19T16:12:01;25.90;99.90
1049;DHT22;513;51.444;7.196;2022-08-19T16:14:28;25.80;99.90
1049;DHT22;513;51.444;7.196;2022-08-19T16:16:56;25.70;99.90
1049;DHT22;513;51.444;7.196;2022-08-19T16:19:23;25.80;99.90
1049;DHT22;513;51.444;7.196;2022-08-19T16:21:53;25.90;99.90
1049;DHT22;513;51.444;7.196;2022-08-19T16:24:22;25.90;99.90
1049;DHT22;513;51.444;7.196;2022-08-19T16:26:51;26.10;99.90
1049;DHT22;513;51.444;7.196;2022-08-19T16:29:19;26.30;99.90
1049;DHT22;513;51.444;7.196;2022-08-19T16:31:47;26.40;99.90